createdAt,value
2017-10-23T00:01:26.830Z,8.10
2017-10-23T00:03:54.325Z,8.10
2017-10-23T00:06:21.802Z,8.00
2017-10-23T00:08:49.346Z,8.00
2017-10-23T00:11:18.338Z,8.10
2017-10-23T00:13:45.899Z,8.10
2017-10-23T00:16:14.101Z,8.00
2017-10-23T00:18:42.354Z,8.10
2017-10-23T00:21:09.810Z,8.00
2017-10-23T00:23:37.345Z,8.10
2017-10-23T00:26:04.875Z,8.20
2017-10-23T00:28:32.321Z,8.20
2017-10-23T00:30:59.785Z,8.20
2017-10-23T00:33:27.274Z,8.10
2017-10-23T00:35:54.729Z,8.10
2017-10-23T00:38:22.175Z,8.10
2017-10-23T00:40:49.646Z,8.00
2017-10-23T00:43:17.102Z,8.00
2017-10-23T00:45:45.315Z,8.00
2017-10-23T00:48:13.521Z,8.00
2017-10-23T00:50:40.965Z,7.90
2017-10-23T00:53:08.456Z,7.90
2017-10-23T00:55:35.904Z,8.00
2017-10-23T00:58:03.354Z,8.00
2017-10-23T01:00:30.802Z,7.90
2017-10-23T01:02:58.254Z,8.00
2017-10-23T01:05:25.709Z,8.10
2017-10-23T01:07:53.191Z,8.00
2017-10-23T01:10:22.181Z,7.90
2017-10-23T01:12:49.742Z,7.90
2017-10-23T01:15:17.308Z,8.00
2017-10-23T01:17:44.806Z,8.10
2017-10-23T01:20:12.334Z,8.10
2017-10-23T01:22:39.790Z,8.20
2017-10-23T01:25:07.237Z,8.10
2017-10-23T01:27:34.698Z,8.10
2017-10-23T01:30:02.921Z,8.10
2017-10-23T01:32:30.406Z,8.00
2017-10-23T01:34:57.878Z,7.90
2017-10-23T01:37:25.432Z,8.00
2017-10-23T01:39:52.869Z,8.00
2017-10-23T01:42:20.357Z,8.00
2017-10-23T01:44:48.630Z,8.00
2017-10-23T01:47:16.842Z,8.00
2017-10-23T01:49:44.338Z,8.00
2017-10-23T01:52:11.897Z,8.00
2017-10-23T01:54:39.451Z,8.00
2017-10-23T01:57:06.914Z,8.00
2017-10-23T01:59:34.457Z,8.00
2017-10-23T02:02:01.906Z,8.00
2017-10-23T02:04:29.348Z,8.00
2017-10-23T02:06:56.822Z,8.00
2017-10-23T02:09:24.270Z,8.00
2017-10-23T02:11:51.734Z,8.00
2017-10-23T02:14:20.005Z,8.00
2017-10-23T02:16:47.461Z,8.10
2017-10-23T02:19:14.906Z,8.00
2017-10-23T02:21:42.358Z,8.00
2017-10-23T02:24:09.833Z,7.90
2017-10-23T02:26:37.288Z,8.00
2017-10-23T02:29:04.738Z,8.00
2017-10-23T02:31:32.199Z,8.00
2017-10-23T02:33:59.646Z,8.00
2017-10-23T02:36:27.090Z,7.90
2017-10-23T02:38:54.562Z,7.90
2017-10-23T02:41:22.018Z,7.90
2017-10-23T02:43:49.473Z,7.80
2017-10-23T02:46:16.951Z,7.80
2017-10-23T02:48:44.400Z,7.90
2017-10-23T02:51:11.938Z,7.90
2017-10-23T02:53:39.389Z,7.80
2017-10-23T02:56:06.905Z,7.70
2017-10-23T02:58:35.142Z,7.70
2017-10-23T03:01:02.590Z,7.70
2017-10-23T03:03:30.799Z,7.80
2017-10-23T03:05:59.030Z,7.70
2017-10-23T03:08:26.485Z,7.70
2017-10-23T03:10:53.993Z,7.80
2017-10-23T03:13:21.519Z,7.70
2017-10-23T03:15:48.978Z,7.80
2017-10-23T03:18:16.434Z,7.80
2017-10-23T03:20:43.879Z,7.80
2017-10-23T03:23:11.425Z,7.80
2017-10-23T03:25:39.005Z,7.80
2017-10-23T03:28:06.446Z,7.90
2017-10-23T03:30:34.659Z,7.90
2017-10-23T03:33:02.184Z,7.90
2017-10-23T03:35:30.390Z,7.90
2017-10-23T03:37:57.824Z,7.80
2017-10-23T03:40:26.048Z,7.80
2017-10-23T03:42:53.481Z,7.80
2017-10-23T03:45:20.926Z,7.80
2017-10-23T03:47:48.454Z,7.70
2017-10-23T03:50:17.420Z,7.80
2017-10-23T03:52:44.865Z,7.80
2017-10-23T03:55:12.324Z,7.80
2017-10-23T03:57:39.798Z,7.90
2017-10-23T04:00:07.301Z,8.00
2017-10-23T04:02:34.808Z,8.00
2017-10-23T04:05:02.258Z,8.00
2017-10-23T04:07:29.713Z,8.00
2017-10-23T04:09:57.170Z,7.90
2017-10-23T04:12:24.633Z,7.90
2017-10-23T04:14:52.156Z,7.70
2017-10-23T04:17:19.581Z,7.80
2017-10-23T04:19:47.810Z,7.80
2017-10-23T04:22:15.270Z,7.80
2017-10-23T04:24:42.722Z,7.80
2017-10-23T04:27:10.186Z,7.90
2017-10-23T04:29:37.761Z,7.90
2017-10-23T04:32:05.215Z,7.80
2017-10-23T04:34:32.686Z,7.90
2017-10-23T04:37:00.124Z,7.90
2017-10-23T04:39:27.682Z,7.90
2017-10-23T04:41:55.853Z,7.90
2017-10-23T04:44:23.397Z,7.90
2017-10-23T04:46:50.853Z,8.00
2017-10-23T04:49:19.837Z,7.90
2017-10-23T04:51:47.286Z,7.90
2017-10-23T04:54:14.739Z,7.80
2017-10-23T04:56:42.226Z,7.90
2017-10-23T04:59:09.762Z,7.80
2017-10-23T05:01:37.320Z,7.70
2017-10-23T05:04:04.778Z,7.80
2017-10-23T05:06:32.354Z,7.80
2017-10-23T05:08:59.802Z,7.70
2017-10-23T05:11:28.028Z,7.90
2017-10-23T05:13:55.497Z,7.90
2017-10-23T05:16:22.992Z,7.90
2017-10-23T05:18:50.555Z,7.90
2017-10-23T05:21:18.107Z,7.90
2017-10-23T05:23:46.336Z,7.90
2017-10-23T05:26:13.790Z,7.90
2017-10-23T05:28:41.253Z,8.00
2017-10-23T05:31:08.702Z,8.00
2017-10-23T05:33:36.156Z,8.10
2017-10-23T05:36:03.614Z,8.10
2017-10-23T05:38:31.098Z,8.20
2017-10-23T05:40:58.634Z,8.20
2017-10-23T05:43:26.110Z,8.00
2017-10-23T05:45:53.558Z,8.00
2017-10-23T05:48:21.014Z,8.00
2017-10-23T05:50:48.446Z,8.10
2017-10-23T05:53:15.992Z,8.20
2017-10-23T05:55:43.462Z,8.00
2017-10-23T05:58:10.902Z,8.00
2017-10-23T06:00:38.368Z,7.90
2017-10-23T06:03:05.894Z,8.00
2017-10-23T06:05:34.134Z,8.70
2017-10-23T06:08:01.589Z,8.70
2017-10-23T06:10:29.150Z,9.10
2017-10-23T06:12:56.821Z,8.80
2017-10-23T06:15:25.793Z,8.30
2017-10-23T06:17:53.261Z,8.30
2017-10-23T06:20:20.885Z,8.20
2017-10-23T06:22:48.389Z,8.20
2017-10-23T06:25:15.930Z,8.10
2017-10-23T06:27:43.533Z,8.10
2017-10-23T06:30:11.757Z,8.10
2017-10-23T06:32:39.202Z,8.10
2017-10-23T06:35:06.701Z,8.00
2017-10-23T06:37:34.159Z,8.00
2017-10-23T06:40:02.382Z,8.10
2017-10-23T06:42:30.598Z,8.00
2017-10-23T06:44:58.130Z,8.00
2017-10-23T06:47:25.588Z,8.10
2017-10-23T06:49:53.030Z,8.00
2017-10-23T06:52:20.478Z,8.10
2017-10-23T06:54:47.923Z,8.10
2017-10-23T06:57:15.370Z,8.20
2017-10-23T06:59:42.820Z,8.10
2017-10-23T07:02:10.287Z,8.10
2017-10-23T07:04:37.757Z,8.20
2017-10-23T07:07:05.205Z,8.30
2017-10-23T07:09:32.816Z,8.50
2017-10-23T07:12:00.354Z,8.50
2017-10-23T07:14:27.902Z,8.50
2017-10-23T07:16:56.075Z,8.30
2017-10-23T07:19:23.537Z,8.30
2017-10-23T07:21:51.086Z,8.30
2017-10-23T07:24:18.534Z,8.30
2017-10-23T07:26:46.832Z,8.20
2017-10-23T07:29:14.275Z,8.30
2017-10-23T07:31:41.726Z,8.50
2017-10-23T07:34:09.174Z,8.60
2017-10-23T07:36:36.670Z,8.60
2017-10-23T07:39:04.883Z,8.70
2017-10-23T07:41:32.361Z,8.70
2017-10-23T07:43:59.842Z,8.80
2017-10-23T07:46:27.386Z,8.80
2017-10-23T07:48:55.599Z,8.50
2017-10-23T07:51:24.416Z,8.70
2017-10-23T07:53:51.910Z,8.60
2017-10-23T07:56:19.471Z,8.80
2017-10-23T07:58:46.949Z,8.80
2017-10-23T08:01:15.207Z,9.00
2017-10-23T08:03:42.826Z,9.00
2017-10-23T08:06:10.310Z,8.90
2017-10-23T08:08:37.801Z,8.80
2017-10-23T08:11:06.029Z,8.80
2017-10-23T08:13:33.498Z,8.80
2017-10-23T08:16:01.066Z,8.70
2017-10-23T08:18:28.622Z,8.70
2017-10-23T08:20:56.082Z,8.60
2017-10-23T08:23:23.558Z,8.50
2017-10-23T08:25:51.757Z,8.70
2017-10-23T08:28:19.202Z,8.70
2017-10-23T08:30:46.718Z,8.90
2017-10-23T08:33:14.821Z,8.90
2017-10-23T08:35:42.278Z,8.90
2017-10-23T08:38:09.743Z,8.80
2017-10-23T08:40:37.177Z,8.60
2017-10-23T08:43:05.444Z,8.60
2017-10-23T08:45:33.696Z,8.70
2017-10-23T08:48:01.251Z,8.70
2017-10-23T08:50:28.806Z,8.80
2017-10-23T08:52:56.753Z,8.90
2017-10-23T08:55:24.326Z,8.90
2017-10-23T08:57:51.774Z,8.90
2017-10-23T09:00:19.233Z,9.00
2017-10-23T09:02:46.805Z,9.10
2017-10-23T09:05:15.009Z,9.00
2017-10-23T09:07:43.273Z,9.10
2017-10-23T09:10:11.536Z,9.00
2017-10-23T09:12:39.650Z,8.90
2017-10-23T09:15:07.133Z,9.00
2017-10-23T09:17:34.573Z,9.00
2017-10-23T09:20:02.066Z,9.20
2017-10-23T09:22:29.503Z,9.40
2017-10-23T09:24:56.961Z,9.40
2017-10-23T09:27:24.426Z,9.70
2017-10-23T09:29:51.985Z,9.70
2017-10-23T09:32:19.530Z,9.70
2017-10-23T09:34:47.001Z,9.70
2017-10-23T09:37:14.446Z,9.70
2017-10-23T09:39:41.902Z,9.50
2017-10-23T09:42:09.350Z,9.50
2017-10-23T09:44:36.820Z,9.60
2017-10-23T09:47:04.378Z,9.90
2017-10-23T09:49:31.830Z,9.80
2017-10-23T09:51:59.281Z,9.70
2017-10-23T09:54:26.860Z,9.70
2017-10-23T09:56:54.302Z,9.80
2017-10-23T09:59:21.750Z,10.00
2017-10-23T10:01:49.310Z,10.00
2017-10-23T10:04:16.791Z,9.70
2017-10-23T10:06:44.325Z,9.80
2017-10-23T10:09:11.780Z,9.90
2017-10-23T10:11:39.247Z,9.90
2017-10-23T10:14:07.518Z,9.90
2017-10-23T10:16:34.981Z,9.90
2017-10-23T10:19:02.542Z,9.90
2017-10-23T10:21:30.099Z,10.00
2017-10-23T10:23:57.558Z,10.00
2017-10-23T10:26:25.081Z,9.90
2017-10-23T10:28:52.533Z,10.00
2017-10-23T10:31:19.990Z,10.20
2017-10-23T10:33:47.442Z,10.10
2017-10-23T10:36:14.909Z,9.90
2017-10-23T10:38:42.357Z,9.90
2017-10-23T10:41:09.820Z,10.00
2017-10-23T10:43:37.278Z,10.00
2017-10-23T10:46:04.734Z,10.00
2017-10-23T10:48:32.177Z,10.10
2017-10-23T10:50:59.647Z,9.90
2017-10-23T10:53:27.094Z,9.90
2017-10-23T10:55:54.562Z,10.00
2017-10-23T10:58:22.006Z,10.10
2017-10-23T11:00:49.539Z,10.10
2017-10-23T11:03:16.989Z,10.20
2017-10-23T11:05:44.450Z,10.20
2017-10-23T11:08:11.909Z,10.10
2017-10-23T11:10:39.361Z,10.30
2017-10-23T11:13:06.958Z,10.20
2017-10-23T11:15:35.937Z,10.10
2017-10-23T11:18:03.403Z,10.10
2017-10-23T11:20:30.985Z,10.30
2017-10-23T11:22:58.436Z,10.50
2017-10-23T11:25:25.898Z,10.80
2017-10-23T11:27:53.340Z,10.90
2017-10-23T11:30:20.807Z,10.70
2017-10-23T11:32:49.167Z,10.90
2017-10-23T11:35:16.623Z,10.80
2017-10-23T11:37:44.146Z,11.00
2017-10-23T11:40:11.590Z,10.90
2017-10-23T11:42:39.034Z,10.80
2017-10-23T11:45:06.486Z,11.00
2017-10-23T11:47:33.946Z,11.00
2017-10-23T11:50:01.408Z,11.30
2017-10-23T11:52:28.910Z,11.70
2017-10-23T11:54:56.367Z,12.00
2017-10-23T11:57:23.830Z,12.00
2017-10-23T11:59:51.285Z,12.00
2017-10-23T12:02:18.845Z,12.00
2017-10-23T12:04:46.406Z,12.10
2017-10-23T12:07:13.866Z,11.80
2017-10-23T12:09:42.089Z,11.70
2017-10-23T12:12:09.537Z,11.60
2017-10-23T12:14:37.012Z,11.80
2017-10-23T12:17:04.550Z,11.80
2017-10-23T12:19:31.994Z,11.80
2017-10-23T12:21:59.455Z,11.50
2017-10-23T12:24:26.910Z,11.40
2017-10-23T12:26:54.410Z,11.10
2017-10-23T12:29:21.861Z,11.10
2017-10-23T12:31:49.418Z,10.90
2017-10-23T12:34:16.975Z,10.90
2017-10-23T12:36:44.537Z,11.20
2017-10-23T12:39:12.004Z,11.40
2017-10-23T12:41:39.465Z,11.50
2017-10-23T12:44:06.905Z,11.50
2017-10-23T12:46:34.369Z,11.20
2017-10-23T12:49:01.823Z,11.10
2017-10-23T12:51:29.275Z,11.00
2017-10-23T12:53:57.490Z,10.90
2017-10-23T12:56:24.942Z,10.80
2017-10-23T12:58:52.391Z,10.60
2017-10-23T13:01:20.615Z,10.10
2017-10-23T13:03:48.081Z,10.10
2017-10-23T13:06:15.666Z,10.10
2017-10-23T13:08:43.888Z,10.30
2017-10-23T13:11:11.374Z,10.20
2017-10-23T13:13:38.828Z,10.30
2017-10-23T13:16:06.306Z,10.30
2017-10-23T13:18:34.522Z,10.20
2017-10-23T13:21:01.966Z,10.10
2017-10-23T13:23:29.459Z,10.30
2017-10-23T13:25:57.022Z,10.40
2017-10-23T13:28:24.477Z,10.20
2017-10-23T13:30:51.933Z,10.20
2017-10-23T13:33:19.501Z,10.20
2017-10-23T13:35:46.954Z,10.20
2017-10-23T13:38:14.397Z,10.10
2017-10-23T13:40:41.841Z,10.00
2017-10-23T13:43:09.305Z,9.80
2017-10-23T13:45:36.764Z,9.50
2017-10-23T13:48:04.206Z,9.40
2017-10-23T13:50:31.656Z,9.40
2017-10-23T13:52:59.132Z,9.40
2017-10-23T13:55:26.580Z,9.30
2017-10-23T13:57:54.234Z,9.10
2017-10-23T14:00:21.677Z,9.00
2017-10-23T14:02:49.157Z,9.00
2017-10-23T14:05:16.610Z,9.10
2017-10-23T14:07:44.184Z,9.20
2017-10-23T14:10:11.725Z,9.20
2017-10-23T14:12:39.185Z,9.40
2017-10-23T14:15:06.642Z,9.30
2017-10-23T14:17:34.494Z,9.40
2017-10-23T14:20:01.950Z,9.40
2017-10-23T14:22:29.393Z,9.50
2017-10-23T14:24:56.842Z,9.50
2017-10-23T14:27:24.294Z,9.40
2017-10-23T14:29:51.789Z,9.40
2017-10-23T14:32:20.742Z,9.30
2017-10-23T14:34:48.216Z,9.30
2017-10-23T14:37:15.658Z,9.20
2017-10-23T14:39:43.114Z,9.20
2017-10-23T14:42:10.614Z,9.20
2017-10-23T14:44:38.058Z,9.20
2017-10-23T14:47:05.618Z,9.00
2017-10-23T14:49:33.086Z,9.20
2017-10-23T14:52:00.621Z,9.20
2017-10-23T14:54:28.325Z,9.30
2017-10-23T14:56:56.561Z,9.20
2017-10-23T14:59:24.185Z,9.20
2017-10-23T15:01:51.622Z,9.20
2017-10-23T15:04:19.847Z,9.10
2017-10-23T15:06:47.305Z,9.00
2017-10-23T15:09:14.758Z,9.00
2017-10-23T15:11:42.320Z,9.00
2017-10-23T15:14:09.801Z,9.00
2017-10-23T15:16:38.018Z,9.20
2017-10-23T15:19:05.468Z,9.10
2017-10-23T15:21:32.930Z,9.30
2017-10-23T15:24:00.369Z,9.40
2017-10-23T15:26:27.828Z,9.40
2017-10-23T15:28:55.282Z,9.20
2017-10-23T15:31:22.721Z,9.20
2017-10-23T15:33:50.162Z,9.20
2017-10-23T15:36:18.831Z,9.10
2017-10-23T15:38:47.777Z,8.90
2017-10-23T15:41:15.236Z,8.80
2017-10-23T15:43:42.674Z,8.90
2017-10-23T15:46:10.170Z,9.00
2017-10-23T15:48:37.610Z,9.00
2017-10-23T15:51:05.066Z,9.10
2017-10-23T15:53:32.535Z,9.00
2017-10-23T15:55:59.981Z,9.10
2017-10-23T15:58:27.502Z,9.10
2017-10-23T16:00:55.013Z,9.20
2017-10-23T16:03:22.450Z,9.10
2017-10-23T16:05:50.667Z,9.10
2017-10-23T16:08:18.878Z,9.20
2017-10-23T16:10:47.086Z,9.10
2017-10-23T16:13:14.546Z,9.10
2017-10-23T16:15:42.100Z,9.00
2017-10-23T16:18:09.723Z,9.00
2017-10-23T16:20:38.230Z,9.00
2017-10-23T16:23:05.765Z,9.00
2017-10-23T16:25:33.226Z,9.10
2017-10-23T16:28:00.709Z,9.10
2017-10-23T16:30:28.265Z,9.20
2017-10-23T16:32:55.717Z,9.20
2017-10-23T16:35:23.182Z,9.20
2017-10-23T16:37:50.646Z,9.20
2017-10-23T16:40:18.089Z,9.30
2017-10-23T16:42:45.551Z,9.40
2017-10-23T16:45:12.992Z,9.30
2017-10-23T16:47:40.454Z,9.30
2017-10-23T16:50:07.909Z,9.30
2017-10-23T16:52:35.366Z,9.10
2017-10-23T16:55:02.809Z,9.10
2017-10-23T16:57:30.341Z,9.10
2017-10-23T16:59:58.206Z,9.30
2017-10-23T17:02:26.023Z,9.20
2017-10-23T17:04:53.594Z,9.20
2017-10-23T17:07:21.805Z,9.20
2017-10-23T17:09:49.262Z,9.10
2017-10-23T17:12:16.722Z,9.00
2017-10-23T17:14:44.178Z,9.00
2017-10-23T17:17:11.627Z,9.00
2017-10-23T17:19:39.082Z,9.00
2017-10-23T17:22:06.520Z,9.00
2017-10-23T17:24:34.012Z,9.20
2017-10-23T17:27:01.478Z,9.10
2017-10-23T17:29:28.926Z,9.10
2017-10-23T17:31:56.359Z,9.20
2017-10-23T17:34:24.368Z,9.10
2017-10-23T17:36:51.813Z,9.10
2017-10-23T17:39:19.273Z,9.00
2017-10-23T17:41:46.726Z,9.10
2017-10-23T17:44:14.953Z,9.10
2017-10-23T17:46:43.364Z,9.10
2017-10-23T17:49:10.825Z,9.10
2017-10-23T17:51:38.269Z,9.10
2017-10-23T17:54:05.734Z,9.10
2017-10-23T17:56:33.190Z,9.20
2017-10-23T17:59:00.694Z,9.10
2017-10-23T18:01:28.966Z,9.10
2017-10-23T18:03:58.178Z,9.10
2017-10-23T18:06:26.185Z,9.10
2017-10-23T18:08:53.670Z,9.10
2017-10-23T18:11:21.454Z,9.10
2017-10-23T18:13:49.672Z,9.20
2017-10-23T18:16:17.126Z,9.20
2017-10-23T18:18:44.846Z,9.30
2017-10-23T18:21:12.341Z,9.20
2017-10-23T18:23:40.803Z,9.20
2017-10-23T18:26:08.260Z,9.20
2017-10-23T18:28:35.947Z,9.10
2017-10-23T18:31:03.389Z,9.10
2017-10-23T18:33:30.894Z,9.20
2017-10-23T18:35:59.129Z,9.10
2017-10-23T18:38:26.611Z,9.10
2017-10-23T18:40:54.060Z,9.10
2017-10-23T18:43:22.404Z,9.10
2017-10-23T18:45:49.882Z,9.10
2017-10-23T18:51:10.925Z,9.20
2017-10-23T18:53:38.385Z,9.20
2017-10-23T18:56:05.869Z,9.20
2017-10-23T18:58:33.433Z,9.10
2017-10-23T19:01:00.977Z,9.10
2017-10-23T19:03:28.469Z,9.10
2017-10-23T19:05:55.985Z,9.10
2017-10-23T19:08:23.503Z,8.90
2017-10-23T19:10:50.958Z,8.90
2017-10-23T19:13:18.400Z,8.90
2017-10-23T19:15:46.627Z,8.90
2017-10-23T19:18:15.288Z,8.90
2017-10-23T19:20:42.795Z,8.90
2017-10-23T19:23:10.333Z,8.90
2017-10-23T19:25:37.777Z,8.90
2017-10-23T19:28:05.249Z,9.00
2017-10-23T19:30:32.699Z,9.00
2017-10-23T19:33:00.649Z,8.90
2017-10-23T19:35:28.154Z,8.90
2017-10-23T19:37:56.421Z,9.00
2017-10-23T19:40:24.692Z,9.00
2017-10-23T19:42:52.202Z,9.00
2017-10-23T19:45:19.724Z,9.00
2017-10-23T19:47:48.156Z,9.00
2017-10-23T19:50:15.618Z,8.90
2017-10-23T19:52:43.114Z,9.00
2017-10-23T19:55:10.633Z,8.90
2017-10-23T19:57:38.275Z,9.00
2017-10-23T20:00:05.788Z,8.80
2017-10-23T20:02:34.036Z,8.80
2017-10-23T20:05:01.941Z,8.80
2017-10-23T20:07:29.949Z,8.90
2017-10-23T20:09:57.435Z,8.90
2017-10-23T20:12:24.889Z,8.90
2017-10-23T20:14:52.341Z,8.90
2017-10-23T20:17:19.812Z,8.90
2017-10-23T20:19:48.059Z,8.90
2017-10-23T20:22:15.517Z,8.90
2017-10-23T20:24:43.065Z,8.90
2017-10-23T20:27:11.356Z,8.80
2017-10-23T20:29:38.796Z,8.80
2017-10-23T20:32:06.249Z,8.80
2017-10-23T20:34:33.789Z,8.80
2017-10-23T20:37:01.257Z,8.80
2017-10-23T20:39:29.465Z,9.00
2017-10-23T20:41:56.900Z,8.90
2017-10-23T20:44:24.344Z,9.00
2017-10-23T20:46:52.213Z,9.00
2017-10-23T20:49:19.777Z,9.00
2017-10-23T20:51:47.221Z,8.90
2017-10-23T20:54:14.685Z,8.90
2017-10-23T20:56:42.145Z,9.00
2017-10-23T20:59:10.357Z,8.80
2017-10-23T21:01:38.578Z,8.90
2017-10-23T21:04:06.029Z,8.90
2017-10-23T21:06:33.533Z,9.00
2017-10-23T21:09:01.846Z,8.90
2017-10-23T21:11:29.287Z,8.90
2017-10-23T21:13:56.725Z,8.90
2017-10-23T21:16:24.942Z,8.90
2017-10-23T21:18:53.033Z,8.80
2017-10-23T21:21:20.589Z,9.00
2017-10-23T21:23:48.170Z,9.00
2017-10-23T21:26:15.625Z,9.00
2017-10-23T21:28:43.081Z,9.00
2017-10-23T21:31:11.409Z,8.90
2017-10-23T21:33:38.832Z,8.80
2017-10-23T21:36:06.337Z,8.80
2017-10-23T21:38:33.798Z,8.90
2017-10-23T21:41:01.357Z,9.00
2017-10-23T21:43:28.802Z,9.00
2017-10-23T21:45:56.257Z,9.00
2017-10-23T21:48:23.717Z,9.00
2017-10-23T21:50:51.289Z,9.00
2017-10-23T21:53:18.734Z,8.90
2017-10-23T21:55:46.293Z,8.90
2017-10-23T21:58:13.853Z,9.00
2017-10-23T22:00:41.310Z,9.10
2017-10-23T22:03:08.870Z,9.00
2017-10-23T22:05:36.427Z,9.00
2017-10-23T22:08:03.861Z,9.00
2017-10-23T22:10:31.298Z,9.10
2017-10-23T22:12:58.741Z,9.00
2017-10-23T22:15:26.201Z,8.90
2017-10-23T22:17:53.696Z,8.90
2017-10-23T22:20:21.148Z,8.90
2017-10-23T22:22:48.591Z,9.10
2017-10-23T22:25:16.032Z,9.20
2017-10-23T22:27:43.514Z,9.10
2017-10-23T22:30:10.974Z,9.00
2017-10-23T22:32:38.546Z,9.00
2017-10-23T22:35:06.134Z,9.00
2017-10-23T22:37:34.345Z,8.90
2017-10-23T22:40:01.789Z,8.90
2017-10-23T22:42:29.238Z,9.00
2017-10-23T22:44:56.682Z,9.00
2017-10-23T22:47:24.221Z,9.00
2017-10-23T22:49:52.459Z,9.00
2017-10-23T22:52:19.915Z,9.00
2017-10-23T22:54:47.357Z,9.00
2017-10-23T22:57:14.801Z,9.10
2017-10-23T22:59:42.277Z,9.10
2017-10-23T23:02:09.846Z,9.00
2017-10-23T23:04:37.302Z,9.00
2017-10-23T23:07:04.865Z,9.10
2017-10-23T23:09:32.300Z,9.10
2017-10-23T23:11:59.764Z,9.20
2017-10-23T23:14:27.217Z,9.10
2017-10-23T23:16:54.661Z,9.10
2017-10-23T23:19:22.094Z,8.90
2017-10-23T23:21:49.536Z,9.00
2017-10-23T23:24:16.984Z,9.00
2017-10-23T23:26:45.225Z,9.10
2017-10-23T23:29:12.725Z,9.00
2017-10-23T23:31:40.164Z,9.10
2017-10-23T23:34:08.383Z,9.00
2017-10-23T23:36:35.826Z,8.90
2017-10-23T23:39:03.272Z,9.10
2017-10-23T23:41:30.709Z,9.20
2017-10-23T23:43:58.218Z,9.10
2017-10-23T23:46:25.673Z,9.10
2017-10-23T23:48:53.669Z,9.00
2017-10-23T23:51:21.107Z,8.90
2017-10-23T23:53:48.556Z,9.00
2017-10-23T23:56:15.989Z,9.00
2017-10-23T23:58:43.434Z,9.00
